Aurora — V7BS9 — position and weather

sailwx.info

Track history (hours):
 
Tides and Currents Weather Stations Pressure Air Temp Water Temp Dewpoint Dewpoint Depression Visibility Wind Speed Wind Dir Waves Ship Positions

Aurora

Last reported at 2017-Mar-14 16:33 UTC. Time now 2017-Mar-22 21:59 UTC.
Position N 34°26' W 076°37'.
Warning: this ship's position is 8 days out of date.

Length 170 m; draft 6.4 m.

Type: Tanker. MMSI: 538001356.

Date/timePositionNaut miles runAvg speedWind from/ knotsBaromVisibWave heightAir tempDewpointWater temp
2017-Mar-14 16:33N 34°26' W 076°37'9 9.4
2017-Mar-14 15:34N 34°36' W 076°40'8 7.7
2017-Mar-14 14:33N 34°43' W 076°42'0 0.0
2017-Mar-14 13:33N 34°43' W 076°42'0 0.0
2017-Mar-14 12:33N 34°43' W 076°42'0 0.0
2017-Mar-14 11:31N 34°43' W 076°42'0 0.0
2017-Mar-14 10:32N 34°43' W 076°42'0 0.0
2017-Mar-14 09:32N 34°43' W 076°42'0 0.0
2017-Mar-14 08:32N 34°43' W 076°42'0 0.0
2017-Mar-14 07:33N 34°43' W 076°42'0 0.0
2017-Mar-14 06:33N 34°43' W 076°42'0 0.0
2017-Mar-14 05:33N 34°43' W 076°42'0 0.0
2017-Mar-14 04:29N 34°43' W 076°42'0 0.0
2017-Mar-14 03:29N 34°43' W 076°42'0 0.0
2017-Mar-14 02:32N 34°43' W 076°42'0 0.0
2017-Mar-14 01:32N 34°43' W 076°42'0 0.0
2017-Mar-14 00:32N 34°43' W 076°42'0 0.0
2017-Mar-13 23:31N 34°43' W 076°42'0 0.0
2017-Mar-13 22:32N 34°43' W 076°42'0 0.0
2017-Mar-13 21:31N 34°43' W 076°42'0 0.0
2017-Mar-13 20:31N 34°43' W 076°42'0 0.0
2017-Mar-13 19:31N 34°43' W 076°42'0 0.0
2017-Mar-13 18:33N 34°43' W 076°42'0 0.0
2017-Mar-13 17:33N 34°43' W 076°42'0 0.0
2017-Mar-13 16:33N 34°43' W 076°42'0 0.0
2017-Mar-13 15:33N 34°43' W 076°42'0 0.2
2017-Mar-13 14:34N 34°43' W 076°42'6 5.5
2017-Mar-13 13:33N 34°38' W 076°40'0 0.1
2017-Mar-13 12:31N 34°38' W 076°40'0 0.0
2017-Mar-13 11:31N 34°38' W 076°40'0 0.0
2017-Mar-13 10:31N 34°38' W 076°40'0 0.0
2017-Mar-13 09:33N 34°38' W 076°40'0 0.0
2017-Mar-13 08:31N 34°38' W 076°40'0 0.0
2017-Mar-13 07:28N 34°38' W 076°40'0 0.0
2017-Mar-13 06:33N 34°38' W 076°40'0 0.0
2017-Mar-13 05:33N 34°38' W 076°40'0 0.0
2017-Mar-13 04:33N 34°38' W 076°40'0 0.0
2017-Mar-13 03:31N 34°38' W 076°40'0 0.0
2017-Mar-13 02:31N 34°38' W 076°40'0 0.0
2017-Mar-13 01:31N 34°38' W 076°40'0 0.0
2017-Mar-13 00:33N 34°38' W 076°40'0 0.0
2017-Mar-12 23:33N 34°38' W 076°40'0 0.0
2017-Mar-12 22:33N 34°38' W 076°40'0 0.0
2017-Mar-12 21:33N 34°38' W 076°40'0 0.0
2017-Mar-12 20:33N 34°38' W 076°40'0 0.0
2017-Mar-12 19:19N 34°38' W 076°40'0 0.0
2017-Mar-12 18:30N 34°37' W 076°40'0 0.0
2017-Mar-12 17:31N 34°38' W 076°40'0 0.0
2017-Mar-12 16:32N 34°38' W 076°40'0 0.0
2017-Mar-12 15:31N 34°37' W 076°40'0 0.0
2017-Mar-12 14:31N 34°38' W 076°40'0 0.0
2017-Mar-12 13:31N 34°38' W 076°40'0 0.0
2017-Mar-12 12:31N 34°38' W 076°40'0 0.0
2017-Mar-12 11:33N 34°38' W 076°40'0 0.0
2017-Mar-12 10:33N 34°38' W 076°40'0 0.1
2017-Mar-12 09:31N 34°38' W 076°40'0 0.1
2017-Mar-12 08:31N 34°38' W 076°40'0 0.0
2017-Mar-12 07:32N 34°38' W 076°40'0 0.0
2017-Mar-12 06:32N 34°38' W 076°40'0 0.0
2017-Mar-12 05:32N 34°38' W 076°40'0 0.0
2017-Mar-12 04:32N 34°38' W 076°40'0 0.0
2017-Mar-12 03:31N 34°38' W 076°40'0 0.0
2017-Mar-12 02:31N 34°38' W 076°40'0 0.1
2017-Mar-12 01:33N 34°38' W 076°40'0 0.1
2017-Mar-12 00:28N 34°38' W 076°40'0 0.1
2017-Mar-11 23:31N 34°38' W 076°40'0 0.0
2017-Mar-11 22:31N 34°38' W 076°40'0 0.0
2017-Mar-11 21:31N 34°38' W 076°40'0 0.0
2017-Mar-11 20:32N 34°38' W 076°40'0 0.0
2017-Mar-11 19:33N 34°38' W 076°40'0 0.0
2017-Mar-11 18:33N 34°38' W 076°40'0 0.2
2017-Mar-11 17:33N 34°38' W 076°40'0 0.0
2017-Mar-11 16:33N 34°38' W 076°40'  
Track history (hours):
 
Tides and Currents Weather Stations Pressure Air Temp Water Temp Dewpoint Dewpoint Depression Visibility Wind Speed Wind Dir Waves Ship Positions

Aurora

Last reported at 2017-Mar-14 16:33 UTC. Time now 2017-Mar-22 21:59 UTC.
Position N 34°26' W 076°37'.
Warning: this ship's position is 8 days out of date.

Length 170 m; draft 6.4 m.

Type: Tanker. MMSI: 538001356.

Date/timePositionNaut miles runAvg speedWind from/ knotsBaromVisibWave heightAir tempDewpointWater temp
2017-Mar-14 16:33N 34°26' W 076°37'9 9.4
2017-Mar-14 15:34N 34°36' W 076°40'8 7.7
2017-Mar-14 14:33N 34°43' W 076°42'0 0.0
2017-Mar-14 13:33N 34°43' W 076°42'0 0.0
2017-Mar-14 12:33N 34°43' W 076°42'0 0.0
2017-Mar-14 11:31N 34°43' W 076°42'0 0.0
2017-Mar-14 10:32N 34°43' W 076°42'0 0.0
2017-Mar-14 09:32N 34°43' W 076°42'0 0.0
2017-Mar-14 08:32N 34°43' W 076°42'0 0.0
2017-Mar-14 07:33N 34°43' W 076°42'0 0.0
2017-Mar-14 06:33N 34°43' W 076°42'0 0.0
2017-Mar-14 05:33N 34°43' W 076°42'0 0.0
2017-Mar-14 04:29N 34°43' W 076°42'0 0.0
2017-Mar-14 03:29N 34°43' W 076°42'0 0.0
2017-Mar-14 02:32N 34°43' W 076°42'0 0.0
2017-Mar-14 01:32N 34°43' W 076°42'0 0.0
2017-Mar-14 00:32N 34°43' W 076°42'0 0.0
2017-Mar-13 23:31N 34°43' W 076°42'0 0.0
2017-Mar-13 22:32N 34°43' W 076°42'0 0.0
2017-Mar-13 21:31N 34°43' W 076°42'0 0.0
2017-Mar-13 20:31N 34°43' W 076°42'0 0.0
2017-Mar-13 19:31N 34°43' W 076°42'0 0.0
2017-Mar-13 18:33N 34°43' W 076°42'0 0.0
2017-Mar-13 17:33N 34°43' W 076°42'0 0.0
2017-Mar-13 16:33N 34°43' W 076°42'0 0.0
2017-Mar-13 15:33N 34°43' W 076°42'0 0.2
2017-Mar-13 14:34N 34°43' W 076°42'6 5.5
2017-Mar-13 13:33N 34°38' W 076°40'0 0.1
2017-Mar-13 12:31N 34°38' W 076°40'0 0.0
2017-Mar-13 11:31N 34°38' W 076°40'0 0.0
2017-Mar-13 10:31N 34°38' W 076°40'0 0.0
2017-Mar-13 09:33N 34°38' W 076°40'0 0.0
2017-Mar-13 08:31N 34°38' W 076°40'0 0.0
2017-Mar-13 07:28N 34°38' W 076°40'0 0.0
2017-Mar-13 06:33N 34°38' W 076°40'0 0.0
2017-Mar-13 05:33N 34°38' W 076°40'0 0.0
2017-Mar-13 04:33N 34°38' W 076°40'0 0.0
2017-Mar-13 03:31N 34°38' W 076°40'0 0.0
2017-Mar-13 02:31N 34°38' W 076°40'0 0.0
2017-Mar-13 01:31N 34°38' W 076°40'0 0.0
2017-Mar-13 00:33N 34°38' W 076°40'0 0.0
2017-Mar-12 23:33N 34°38' W 076°40'0 0.0
2017-Mar-12 22:33N 34°38' W 076°40'0 0.0
2017-Mar-12 21:33N 34°38' W 076°40'0 0.0
2017-Mar-12 20:33N 34°38' W 076°40'0 0.0
2017-Mar-12 19:19N 34°38' W 076°40'0 0.0
2017-Mar-12 18:30N 34°37' W 076°40'0 0.0
2017-Mar-12 17:31N 34°38' W 076°40'0 0.0
2017-Mar-12 16:32N 34°38' W 076°40'0 0.0
2017-Mar-12 15:31N 34°37' W 076°40'0 0.0
2017-Mar-12 14:31N 34°38' W 076°40'0 0.0
2017-Mar-12 13:31N 34°38' W 076°40'0 0.0
2017-Mar-12 12:31N 34°38' W 076°40'0 0.0
2017-Mar-12 11:33N 34°38' W 076°40'0 0.0
2017-Mar-12 10:33N 34°38' W 076°40'0 0.1
2017-Mar-12 09:31N 34°38' W 076°40'0 0.1
2017-Mar-12 08:31N 34°38' W 076°40'0 0.0
2017-Mar-12 07:32N 34°38' W 076°40'0 0.0
2017-Mar-12 06:32N 34°38' W 076°40'0 0.0
2017-Mar-12 05:32N 34°38' W 076°40'0 0.0
2017-Mar-12 04:32N 34°38' W 076°40'0 0.0
2017-Mar-12 03:31N 34°38' W 076°40'0 0.0
2017-Mar-12 02:31N 34°38' W 076°40'0 0.1
2017-Mar-12 01:33N 34°38' W 076°40'0 0.1
2017-Mar-12 00:28N 34°38' W 076°40'0 0.1
2017-Mar-11 23:31N 34°38' W 076°40'0 0.0
2017-Mar-11 22:31N 34°38' W 076°40'0 0.0
2017-Mar-11 21:31N 34°38' W 076°40'0 0.0
2017-Mar-11 20:32N 34°38' W 076°40'0 0.0
2017-Mar-11 19:33N 34°38' W 076°40'0 0.0
2017-Mar-11 18:33N 34°38' W 076°40'0 0.2
2017-Mar-11 17:33N 34°38' W 076°40'0 0.0
2017-Mar-11 16:33N 34°38' W 076°40'  

Dump ship's entire track history